Washington, District of Columbia
Traffic Map
Current Weather Conditions
Washington, District of Columbia
Broken Clouds Thunderstorm
Broken Clouds
81°
Feels Like: 85°
Wind Chill: 81° Ceiling: 7000
Heat Index: 85° Visibility: 10mi
Dew Point: 72° Wind: 7mph
Humidity: 74% Direction: 250° (WSW)
Pressure: 29.64in Gusts: 0mph
Raw Report DataKDCA 280403Z 25006KT 10SM -TSRA FEW055CB BKN070 BKN150 BKN250 27/22 A2964 RMK AO2 TSB02 OCNL LTGICCCCG N TS N MOV E P0002
Traffic Incident Summary
Active as of:
Severity:
Category:
InformationThere was an issue retrieving the traffic information for this location. Please try a different location or try again shortly.
Advertisements
Track Severe Weather on mobile